sensor_id;sensor_type;location;lat;lon;timestamp;temperature;humidity
22035;DHT22;11181;51.002;4.356;2023-07-13T00:00:46;19.20;99.90
22035;DHT22;11181;51.002;4.356;2023-07-13T00:03:13;19.20;99.90
22035;DHT22;11181;51.002;4.356;2023-07-13T00:05:40;19.20;99.90
22035;DHT22;11181;51.002;4.356;2023-07-13T00:08:08;19.20;99.90
22035;DHT22;11181;51.002;4.356;2023-07-13T00:10:40;19.10;99.90
22035;DHT22;11181;51.002;4.356;2023-07-13T00:13:07;19.10;99.90
22035;DHT22;11181;51.002;4.356;2023-07-13T00:15:35;19.00;99.90
22035;DHT22;11181;51.002;4.356;2023-07-13T00:18:02;19.00;99.90
22035;DHT22;11181;51.002;4.356;2023-07-13T00:20:29;19.00;99.90
22035;DHT22;11181;51.002;4.356;2023-07-13T00:22:56;19.00;99.90
22035;DHT22;11181;51.002;4.356;2023-07-13T00:25:23;19.00;99.90
22035;DHT22;11181;51.002;4.356;2023-07-13T00:27:55;19.00;99.90
22035;DHT22;11181;51.002;4.356;2023-07-13T00:30:22;19.00;99.90
22035;DHT22;11181;51.002;4.356;2023-07-13T00:32:49;19.10;99.90
22035;DHT22;11181;51.002;4.356;2023-07-13T00:35:17;19.10;99.90
22035;DHT22;11181;51.002;4.356;2023-07-13T00:37:44;19.10;99.90
22035;DHT22;11181;51.002;4.356;2023-07-13T00:40:13;19.10;99.90
22035;DHT22;11181;51.002;4.356;2023-07-13T00:42:40;19.10;99.90
22035;DHT22;11181;51.002;4.356;2023-07-13T00:48:09;19.10;99.90
22035;DHT22;11181;51.002;4.356;2023-07-13T00:50:37;19.10;99.90
22035;DHT22;11181;51.002;4.356;2023-07-13T00:53:04;19.20;99.90
22035;DHT22;11181;51.002;4.356;2023-07-13T00:55:32;19.20;99.90
22035;DHT22;11181;51.002;4.356;2023-07-13T00:57:59;19.20;99.90
22035;DHT22;11181;51.002;4.356;2023-07-13T01:00:27;19.10;99.90
22035;DHT22;11181;51.002;4.356;2023-07-13T01:02:57;19.00;99.90
22035;DHT22;11181;51.002;4.356;2023-07-13T01:05:25;19.00;99.90
22035;DHT22;11181;51.002;4.356;2023-07-13T01:07:53;19.00;99.90
22035;DHT22;11181;51.002;4.356;2023-07-13T01:10:22;18.90;99.90
22035;DHT22;11181;51.002;4.356;2023-07-13T01:12:49;19.00;99.90
22035;DHT22;11181;51.002;4.356;2023-07-13T01:15:36;18.90;99.90
22035;DHT22;11181;51.002;4.356;2023-07-13T01:18:04;18.80;99.90
22035;DHT22;11181;51.002;4.356;2023-07-13T01:20:33;18.80;99.90
22035;DHT22;11181;51.002;4.356;2023-07-13T01:23:04;18.80;99.90
22035;DHT22;11181;51.002;4.356;2023-07-13T01:25:32;18.90;99.90
22035;DHT22;11181;51.002;4.356;2023-07-13T01:28:00;18.90;99.90
22035;DHT22;11181;51.002;4.356;2023-07-13T01:30:27;18.80;99.90
22035;DHT22;11181;51.002;4.356;2023-07-13T01:32:54;18.90;99.90
22035;DHT22;11181;51.002;4.356;2023-07-13T01:35:21;18.90;99.90
22035;DHT22;11181;51.002;4.356;2023-07-13T01:37:48;19.00;99.90
22035;DHT22;11181;51.002;4.356;2023-07-13T01:40:17;19.10;99.90
22035;DHT22;11181;51.002;4.356;2023-07-13T01:42:44;19.10;99.90
22035;DHT22;11181;51.002;4.356;2023-07-13T01:45:11;19.00;99.90
22035;DHT22;11181;51.002;4.356;2023-07-13T01:47:38;18.90;99.90
22035;DHT22;11181;51.002;4.356;2023-07-13T01:50:05;18.90;99.90
22035;DHT22;11181;51.002;4.356;2023-07-13T01:52:32;18.90;99.90
22035;DHT22;11181;51.002;4.356;2023-07-13T01:54:59;18.90;99.90
22035;DHT22;11181;51.002;4.356;2023-07-13T01:57:27;18.90;99.90
22035;DHT22;11181;51.002;4.356;2023-07-13T01:59:54;18.90;99.90
22035;DHT22;11181;51.002;4.356;2023-07-13T02:02:21;18.90;99.90
22035;DHT22;11181;51.002;4.356;2023-07-13T02:04:48;18.90;99.90
22035;DHT22;11181;51.002;4.356;2023-07-13T02:07:15;18.80;99.90
22035;DHT22;11181;51.002;4.356;2023-07-13T02:09:42;18.80;99.90
22035;DHT22;11181;51.002;4.356;2023-07-13T02:12:09;18.70;99.90
22035;DHT22;11181;51.002;4.356;2023-07-13T02:14:37;18.70;99.90
22035;DHT22;11181;51.002;4.356;2023-07-13T02:17:04;18.70;99.90
22035;DHT22;11181;51.002;4.356;2023-07-13T02:19:32;18.60;99.90
22035;DHT22;11181;51.002;4.356;2023-07-13T02:21:59;18.40;99.90
22035;DHT22;11181;51.002;4.356;2023-07-13T02:24:26;18.20;99.90
22035;DHT22;11181;51.002;4.356;2023-07-13T02:26:53;18.00;99.90
22035;DHT22;11181;51.002;4.356;2023-07-13T02:29:20;18.00;99.90
22035;DHT22;11181;51.002;4.356;2023-07-13T02:31:48;18.00;99.90
22035;DHT22;11181;51.002;4.356;2023-07-13T02:34:15;17.90;99.90
22035;DHT22;11181;51.002;4.356;2023-07-13T02:36:42;17.80;99.90
22035;DHT22;11181;51.002;4.356;2023-07-13T02:39:11;17.80;99.90
22035;DHT22;11181;51.002;4.356;2023-07-13T02:41:38;17.80;99.90
22035;DHT22;11181;51.002;4.356;2023-07-13T02:44:05;17.90;99.90
22035;DHT22;11181;51.002;4.356;2023-07-13T02:46:35;17.90;99.90
22035;DHT22;11181;51.002;4.356;2023-07-13T02:49:04;18.00;99.90
22035;DHT22;11181;51.002;4.356;2023-07-13T02:51:31;18.00;99.90
22035;DHT22;11181;51.002;4.356;2023-07-13T02:53:59;18.10;99.90
22035;DHT22;11181;51.002;4.356;2023-07-13T02:56:28;18.20;99.90
22035;DHT22;11181;51.002;4.356;2023-07-13T02:58:56;18.20;99.90
22035;DHT22;11181;51.002;4.356;2023-07-13T03:01:23;18.20;99.90
22035;DHT22;11181;51.002;4.356;2023-07-13T03:03:50;18.30;99.90
22035;DHT22;11181;51.002;4.356;2023-07-13T03:06:20;18.30;99.90
22035;DHT22;11181;51.002;4.356;2023-07-13T03:08:48;18.20;99.90
22035;DHT22;11181;51.002;4.356;2023-07-13T03:11:18;17.90;99.90
22035;DHT22;11181;51.002;4.356;2023-07-13T03:13:46;17.70;99.90
22035;DHT22;11181;51.002;4.356;2023-07-13T03:16:14;17.70;99.90
22035;DHT22;11181;51.002;4.356;2023-07-13T03:18:42;17.80;99.90
22035;DHT22;11181;51.002;4.356;2023-07-13T03:21:10;17.90;99.90
22035;DHT22;11181;51.002;4.356;2023-07-13T03:23:38;18.00;99.90
22035;DHT22;11181;51.002;4.356;2023-07-13T03:26:07;18.10;99.90
22035;DHT22;11181;51.002;4.356;2023-07-13T03:28:35;18.10;99.90
22035;DHT22;11181;51.002;4.356;2023-07-13T03:31:03;17.90;99.90
22035;DHT22;11181;51.002;4.356;2023-07-13T03:33:31;17.90;99.90
22035;DHT22;11181;51.002;4.356;2023-07-13T03:35:58;18.00;99.90
22035;DHT22;11181;51.002;4.356;2023-07-13T03:38:25;18.00;99.90
22035;DHT22;11181;51.002;4.356;2023-07-13T03:40:54;18.00;99.90
22035;DHT22;11181;51.002;4.356;2023-07-13T03:43:21;17.80;99.90
22035;DHT22;11181;51.002;4.356;2023-07-13T03:45:47;17.90;99.90
22035;DHT22;11181;51.002;4.356;2023-07-13T03:48:14;17.90;99.90
22035;DHT22;11181;51.002;4.356;2023-07-13T03:50:41;17.70;99.90
22035;DHT22;11181;51.002;4.356;2023-07-13T03:53:08;17.70;99.90
22035;DHT22;11181;51.002;4.356;2023-07-13T03:55:35;17.70;99.90
22035;DHT22;11181;51.002;4.356;2023-07-13T03:58:25;17.80;99.90
22035;DHT22;11181;51.002;4.356;2023-07-13T04:00:53;17.80;99.90
22035;DHT22;11181;51.002;4.356;2023-07-13T04:03:19;17.80;99.90
22035;DHT22;11181;51.002;4.356;2023-07-13T04:05:47;17.90;99.90
22035;DHT22;11181;51.002;4.356;2023-07-13T04:08:14;17.80;99.90
22035;DHT22;11181;51.002;4.356;2023-07-13T04:10:40;17.70;99.90
22035;DHT22;11181;51.002;4.356;2023-07-13T04:13:07;17.70;99.90
22035;DHT22;11181;51.002;4.356;2023-07-13T04:15:36;17.50;99.90
22035;DHT22;11181;51.002;4.356;2023-07-13T04:18:03;17.50;99.90
22035;DHT22;11181;51.002;4.356;2023-07-13T04:20:30;17.50;99.90
22035;DHT22;11181;51.002;4.356;2023-07-13T04:22:58;17.40;99.90
22035;DHT22;11181;51.002;4.356;2023-07-13T04:25:25;17.50;99.90
22035;DHT22;11181;51.002;4.356;2023-07-13T04:27:52;17.60;99.90
22035;DHT22;11181;51.002;4.356;2023-07-13T04:30:20;17.60;99.90
22035;DHT22;11181;51.002;4.356;2023-07-13T04:32:49;17.60;99.90
22035;DHT22;11181;51.002;4.356;2023-07-13T04:35:17;17.70;99.90
22035;DHT22;11181;51.002;4.356;2023-07-13T04:37:46;17.70;99.90
22035;DHT22;11181;51.002;4.356;2023-07-13T04:40:14;17.80;99.90
22035;DHT22;11181;51.002;4.356;2023-07-13T04:42:41;17.70;99.90
22035;DHT22;11181;51.002;4.356;2023-07-13T04:45:08;17.80;99.90
22035;DHT22;11181;51.002;4.356;2023-07-13T04:47:35;17.90;99.90
22035;DHT22;11181;51.002;4.356;2023-07-13T04:50:04;17.90;99.90
22035;DHT22;11181;51.002;4.356;2023-07-13T04:52:31;17.90;99.90
22035;DHT22;11181;51.002;4.356;2023-07-13T04:54:59;17.90;99.90
22035;DHT22;11181;51.002;4.356;2023-07-13T04:57:26;17.70;99.90
22035;DHT22;11181;51.002;4.356;2023-07-13T04:59:53;17.70;99.90
22035;DHT22;11181;51.002;4.356;2023-07-13T05:02:20;17.80;99.90
22035;DHT22;11181;51.002;4.356;2023-07-13T05:04:48;17.80;99.90
22035;DHT22;11181;51.002;4.356;2023-07-13T05:07:16;17.90;99.90
22035;DHT22;11181;51.002;4.356;2023-07-13T05:09:43;17.90;99.90
22035;DHT22;11181;51.002;4.356;2023-07-13T05:12:10;18.00;99.90
22035;DHT22;11181;51.002;4.356;2023-07-13T05:14:37;17.80;99.90
22035;DHT22;11181;51.002;4.356;2023-07-13T05:17:04;17.90;99.90
22035;DHT22;11181;51.002;4.356;2023-07-13T05:19:31;18.00;99.90
22035;DHT22;11181;51.002;4.356;2023-07-13T05:21:58;18.00;99.90
22035;DHT22;11181;51.002;4.356;2023-07-13T05:24:27;18.00;99.90
22035;DHT22;11181;51.002;4.356;2023-07-13T05:26:54;18.10;99.90
22035;DHT22;11181;51.002;4.356;2023-07-13T05:29:21;18.20;99.90
22035;DHT22;11181;51.002;4.356;2023-07-13T05:31:49;18.30;99.90
22035;DHT22;11181;51.002;4.356;2023-07-13T05:34:16;18.30;99.90
22035;DHT22;11181;51.002;4.356;2023-07-13T05:36:43;18.40;99.90
22035;DHT22;11181;51.002;4.356;2023-07-13T05:39:10;18.30;99.90
22035;DHT22;11181;51.002;4.356;2023-07-13T05:41:39;18.30;99.90
22035;DHT22;11181;51.002;4.356;2023-07-13T05:44:06;18.30;99.90
22035;DHT22;11181;51.002;4.356;2023-07-13T05:46:33;18.30;99.90
22035;DHT22;11181;51.002;4.356;2023-07-13T05:49:00;18.30;99.90
22035;DHT22;11181;51.002;4.356;2023-07-13T05:51:28;18.30;99.90
22035;DHT22;11181;51.002;4.356;2023-07-13T05:53:55;18.50;99.90
22035;DHT22;11181;51.002;4.356;2023-07-13T05:56:23;18.50;99.90
22035;DHT22;11181;51.002;4.356;2023-07-13T05:58:52;18.50;99.90
22035;DHT22;11181;51.002;4.356;2023-07-13T06:01:19;18.50;99.90
22035;DHT22;11181;51.002;4.356;2023-07-13T06:03:46;18.60;99.90
22035;DHT22;11181;51.002;4.356;2023-07-13T06:06:13;18.70;99.90
22035;DHT22;11181;51.002;4.356;2023-07-13T06:08:40;18.60;99.90
22035;DHT22;11181;51.002;4.356;2023-07-13T06:11:09;18.60;99.90
22035;DHT22;11181;51.002;4.356;2023-07-13T06:13:39;18.70;99.90
22035;DHT22;11181;51.002;4.356;2023-07-13T06:16:07;18.70;99.90
22035;DHT22;11181;51.002;4.356;2023-07-13T06:18:35;18.70;99.90
22035;DHT22;11181;51.002;4.356;2023-07-13T06:21:06;18.70;99.90
22035;DHT22;11181;51.002;4.356;2023-07-13T06:23:33;18.70;99.90
22035;DHT22;11181;51.002;4.356;2023-07-13T06:26:00;18.70;99.90
22035;DHT22;11181;51.002;4.356;2023-07-13T06:28:28;18.80;99.90
22035;DHT22;11181;51.002;4.356;2023-07-13T06:30:55;18.80;99.90
22035;DHT22;11181;51.002;4.356;2023-07-13T06:33:23;18.80;99.90
22035;DHT22;11181;51.002;4.356;2023-07-13T06:35:50;18.90;99.90
22035;DHT22;11181;51.002;4.356;2023-07-13T06:38:17;19.00;99.90
22035;DHT22;11181;51.002;4.356;2023-07-13T06:40:44;19.00;99.90
22035;DHT22;11181;51.002;4.356;2023-07-13T06:43:11;19.00;99.90
22035;DHT22;11181;51.002;4.356;2023-07-13T06:45:41;19.10;99.90
22035;DHT22;11181;51.002;4.356;2023-07-13T06:48:08;19.20;99.90
22035;DHT22;11181;51.002;4.356;2023-07-13T06:50:37;19.20;99.90
22035;DHT22;11181;51.002;4.356;2023-07-13T06:53:03;19.10;99.90
22035;DHT22;11181;51.002;4.356;2023-07-13T06:55:30;19.20;99.90
22035;DHT22;11181;51.002;4.356;2023-07-13T06:57:57;19.20;99.90
22035;DHT22;11181;51.002;4.356;2023-07-13T07:00:24;19.20;99.90
22035;DHT22;11181;51.002;4.356;2023-07-13T07:02:51;19.20;99.90
22035;DHT22;11181;51.002;4.356;2023-07-13T07:05:18;19.40;99.90
22035;DHT22;11181;51.002;4.356;2023-07-13T07:07:49;19.60;99.90
22035;DHT22;11181;51.002;4.356;2023-07-13T07:10:17;19.70;99.90
22035;DHT22;11181;51.002;4.356;2023-07-13T07:12:44;19.80;99.90
22035;DHT22;11181;51.002;4.356;2023-07-13T07:15:11;19.80;99.90
22035;DHT22;11181;51.002;4.356;2023-07-13T07:17:39;19.90;99.90
22035;DHT22;11181;51.002;4.356;2023-07-13T07:20:06;19.80;99.90
22035;DHT22;11181;51.002;4.356;2023-07-13T07:22:34;19.90;99.90
22035;DHT22;11181;51.002;4.356;2023-07-13T07:25:02;20.10;99.90
22035;DHT22;11181;51.002;4.356;2023-07-13T07:27:29;20.10;99.90
22035;DHT22;11181;51.002;4.356;2023-07-13T07:29:56;20.20;99.90
22035;DHT22;11181;51.002;4.356;2023-07-13T07:32:24;20.10;99.90
22035;DHT22;11181;51.002;4.356;2023-07-13T07:34:51;20.20;99.90
22035;DHT22;11181;51.002;4.356;2023-07-13T07:37:17;20.40;99.90
22035;DHT22;11181;51.002;4.356;2023-07-13T07:39:44;20.50;99.90
22035;DHT22;11181;51.002;4.356;2023-07-13T07:42:13;20.70;99.90
22035;DHT22;11181;51.002;4.356;2023-07-13T07:44:40;20.90;99.90
22035;DHT22;11181;51.002;4.356;2023-07-13T07:47:08;21.00;99.90
22035;DHT22;11181;51.002;4.356;2023-07-13T07:49:35;21.10;99.90
22035;DHT22;11181;51.002;4.356;2023-07-13T07:52:04;21.30;99.90
22035;DHT22;11181;51.002;4.356;2023-07-13T07:54:31;21.30;99.90
22035;DHT22;11181;51.002;4.356;2023-07-13T07:56:58;21.40;99.90
22035;DHT22;11181;51.002;4.356;2023-07-13T07:59:26;21.50;99.90
22035;DHT22;11181;51.002;4.356;2023-07-13T08:01:53;21.70;99.90
22035;DHT22;11181;51.002;4.356;2023-07-13T08:04:20;21.70;99.90
22035;DHT22;11181;51.002;4.356;2023-07-13T08:06:47;21.80;99.90
22035;DHT22;11181;51.002;4.356;2023-07-13T08:09:14;21.70;99.90
22035;DHT22;11181;51.002;4.356;2023-07-13T08:11:41;21.30;99.90
22035;DHT22;11181;51.002;4.356;2023-07-13T08:14:07;21.30;99.90
22035;DHT22;11181;51.002;4.356;2023-07-13T08:16:36;21.40;99.90
22035;DHT22;11181;51.002;4.356;2023-07-13T08:19:03;21.30;99.90
22035;DHT22;11181;51.002;4.356;2023-07-13T08:21:31;21.40;99.90
22035;DHT22;11181;51.002;4.356;2023-07-13T08:23:58;21.70;99.90
22035;DHT22;11181;51.002;4.356;2023-07-13T08:26:25;21.90;99.90
22035;DHT22;11181;51.002;4.356;2023-07-13T08:28:52;22.20;99.90
22035;DHT22;11181;51.002;4.356;2023-07-13T08:31:19;22.50;99.90
22035;DHT22;11181;51.002;4.356;2023-07-13T08:33:47;22.60;99.90
22035;DHT22;11181;51.002;4.356;2023-07-13T08:36:14;22.70;99.90
22035;DHT22;11181;51.002;4.356;2023-07-13T08:38:41;22.70;99.90
22035;DHT22;11181;51.002;4.356;2023-07-13T08:41:13;22.70;99.90
22035;DHT22;11181;51.002;4.356;2023-07-13T08:43:41;22.80;99.90
22035;DHT22;11181;51.002;4.356;2023-07-13T08:46:13;23.00;99.90
22035;DHT22;11181;51.002;4.356;2023-07-13T08:48:45;23.10;99.90
22035;DHT22;11181;51.002;4.356;2023-07-13T08:51:31;23.00;99.90
22035;DHT22;11181;51.002;4.356;2023-07-13T08:54:02;22.90;99.90
22035;DHT22;11181;51.002;4.356;2023-07-13T08:56:31;22.70;99.90
22035;DHT22;11181;51.002;4.356;2023-07-13T08:59:02;22.60;99.90
22035;DHT22;11181;51.002;4.356;2023-07-13T09:01:46;22.50;99.90
22035;DHT22;11181;51.002;4.356;2023-07-13T09:04:16;22.40;99.90
22035;DHT22;11181;51.002;4.356;2023-07-13T09:06:55;22.40;99.90
22035;DHT22;11181;51.002;4.356;2023-07-13T09:09:30;22.50;99.90
22035;DHT22;11181;51.002;4.356;2023-07-13T09:12:04;22.80;99.90
22035;DHT22;11181;51.002;4.356;2023-07-13T09:14:44;22.80;99.90
22035;DHT22;11181;51.002;4.356;2023-07-13T09:17:16;23.00;99.90
22035;DHT22;11181;51.002;4.356;2023-07-13T09:19:46;23.10;99.90
22035;DHT22;11181;51.002;4.356;2023-07-13T09:22:19;23.40;99.90
22035;DHT22;11181;51.002;4.356;2023-07-13T09:25:00;23.70;99.90
22035;DHT22;11181;51.002;4.356;2023-07-13T09:27:33;23.90;99.90
22035;DHT22;11181;51.002;4.356;2023-07-13T09:30:24;23.80;99.90
22035;DHT22;11181;51.002;4.356;2023-07-13T09:32:57;23.80;99.90
22035;DHT22;11181;51.002;4.356;2023-07-13T09:35:26;24.00;99.90
22035;DHT22;11181;51.002;4.356;2023-07-13T09:38:01;24.20;99.90
22035;DHT22;11181;51.002;4.356;2023-07-13T09:40:40;24.30;99.90
22035;DHT22;11181;51.002;4.356;2023-07-13T09:43:11;24.30;99.90
22035;DHT22;11181;51.002;4.356;2023-07-13T09:45:39;24.20;99.90
22035;DHT22;11181;51.002;4.356;2023-07-13T09:48:11;24.20;99.90
22035;DHT22;11181;51.002;4.356;2023-07-13T09:50:39;24.10;99.90
22035;DHT22;11181;51.002;4.356;2023-07-13T09:53:13;23.70;99.90
22035;DHT22;11181;51.002;4.356;2023-07-13T09:55:42;23.50;99.90
22035;DHT22;11181;51.002;4.356;2023-07-13T09:58:12;23.40;99.90
22035;DHT22;11181;51.002;4.356;2023-07-13T10:00:41;23.30;99.90
22035;DHT22;11181;51.002;4.356;2023-07-13T10:03:18;23.50;99.90
22035;DHT22;11181;51.002;4.356;2023-07-13T10:05:48;23.80;99.90
22035;DHT22;11181;51.002;4.356;2023-07-13T10:08:23;24.10;99.90
22035;DHT22;11181;51.002;4.356;2023-07-13T10:10:57;24.20;99.90
22035;DHT22;11181;51.002;4.356;2023-07-13T10:13:29;24.30;99.90
22035;DHT22;11181;51.002;4.356;2023-07-13T10:15:57;24.50;99.90
22035;DHT22;11181;51.002;4.356;2023-07-13T10:18:25;24.50;99.90
22035;DHT22;11181;51.002;4.356;2023-07-13T10:21:00;24.70;99.90
22035;DHT22;11181;51.002;4.356;2023-07-13T10:23:36;24.90;99.90
22035;DHT22;11181;51.002;4.356;2023-07-13T10:26:05;25.30;99.90
22035;DHT22;11181;51.002;4.356;2023-07-13T10:28:37;25.40;99.90
22035;DHT22;11181;51.002;4.356;2023-07-13T10:31:07;25.70;99.90
22035;DHT22;11181;51.002;4.356;2023-07-13T10:33:37;25.90;99.90
22035;DHT22;11181;51.002;4.356;2023-07-13T10:36:13;26.00;99.90
22035;DHT22;11181;51.002;4.356;2023-07-13T10:38:43;26.30;99.90
22035;DHT22;11181;51.002;4.356;2023-07-13T10:41:17;26.00;99.90
22035;DHT22;11181;51.002;4.356;2023-07-13T10:43:47;25.70;99.90
22035;DHT22;11181;51.002;4.356;2023-07-13T10:46:18;25.70;99.90
22035;DHT22;11181;51.002;4.356;2023-07-13T10:48:49;25.70;99.90
22035;DHT22;11181;51.002;4.356;2023-07-13T10:51:18;25.70;99.90
22035;DHT22;11181;51.002;4.356;2023-07-13T10:54:14;25.70;99.90
22035;DHT22;11181;51.002;4.356;2023-07-13T10:56:43;25.90;99.90
22035;DHT22;11181;51.002;4.356;2023-07-13T10:59:12;25.70;99.90
22035;DHT22;11181;51.002;4.356;2023-07-13T11:01:50;25.70;99.90
22035;DHT22;11181;51.002;4.356;2023-07-13T11:04:20;25.70;99.90
22035;DHT22;11181;51.002;4.356;2023-07-13T11:06:49;25.70;99.90
22035;DHT22;11181;51.002;4.356;2023-07-13T11:09:37;25.30;99.90
22035;DHT22;11181;51.002;4.356;2023-07-13T11:12:09;25.40;99.90
22035;DHT22;11181;51.002;4.356;2023-07-13T11:14:43;25.70;99.90
22035;DHT22;11181;51.002;4.356;2023-07-13T11:17:47;26.10;99.90
22035;DHT22;11181;51.002;4.356;2023-07-13T11:20:38;26.30;99.90
22035;DHT22;11181;51.002;4.356;2023-07-13T11:23:29;26.60;99.90
22035;DHT22;11181;51.002;4.356;2023-07-13T11:25:58;26.80;99.90
22035;DHT22;11181;51.002;4.356;2023-07-13T11:28:29;26.80;99.90
22035;DHT22;11181;51.002;4.356;2023-07-13T11:33:54;26.30;99.90
22035;DHT22;11181;51.002;4.356;2023-07-13T11:36:24;26.00;99.90
22035;DHT22;11181;51.002;4.356;2023-07-13T11:39:00;25.90;99.90
22035;DHT22;11181;51.002;4.356;2023-07-13T11:41:31;25.80;99.90
22035;DHT22;11181;51.002;4.356;2023-07-13T11:44:11;25.70;99.90
22035;DHT22;11181;51.002;4.356;2023-07-13T11:46:39;26.00;99.90
22035;DHT22;11181;51.002;4.356;2023-07-13T11:49:15;26.10;99.90
22035;DHT22;11181;51.002;4.356;2023-07-13T11:51:43;25.90;99.90
22035;DHT22;11181;51.002;4.356;2023-07-13T11:54:25;25.00;99.90
22035;DHT22;11181;51.002;4.356;2023-07-13T11:56:55;24.00;99.90
22035;DHT22;11181;51.002;4.356;2023-07-13T11:59:23;22.90;99.90
22035;DHT22;11181;51.002;4.356;2023-07-13T12:01:52;22.40;99.90
22035;DHT22;11181;51.002;4.356;2023-07-13T12:04:22;22.40;99.90
22035;DHT22;11181;51.002;4.356;2023-07-13T12:06:55;22.20;99.90
22035;DHT22;11181;51.002;4.356;2023-07-13T12:09:26;22.20;99.90
22035;DHT22;11181;51.002;4.356;2023-07-13T12:11:57;22.00;99.90
22035;DHT22;11181;51.002;4.356;2023-07-13T12:14:25;21.70;99.90
22035;DHT22;11181;51.002;4.356;2023-07-13T12:16:53;21.20;99.90
22035;DHT22;11181;51.002;4.356;2023-07-13T12:19:23;21.00;99.90
22035;DHT22;11181;51.002;4.356;2023-07-13T12:21:52;20.90;99.90
22035;DHT22;11181;51.002;4.356;2023-07-13T12:24:21;20.90;99.90
22035;DHT22;11181;51.002;4.356;2023-07-13T12:26:52;20.90;99.90
22035;DHT22;11181;51.002;4.356;2023-07-13T12:29:21;21.00;99.90
22035;DHT22;11181;51.002;4.356;2023-07-13T12:31:49;21.20;99.90
22035;DHT22;11181;51.002;4.356;2023-07-13T12:34:19;21.40;99.90
22035;DHT22;11181;51.002;4.356;2023-07-13T12:36:49;21.60;99.90
22035;DHT22;11181;51.002;4.356;2023-07-13T12:39:19;21.80;99.90
22035;DHT22;11181;51.002;4.356;2023-07-13T12:41:47;21.90;99.90
22035;DHT22;11181;51.002;4.356;2023-07-13T12:44:17;22.10;99.90
22035;DHT22;11181;51.002;4.356;2023-07-13T12:46:55;21.90;99.90
22035;DHT22;11181;51.002;4.356;2023-07-13T12:49:25;21.80;99.90
22035;DHT22;11181;51.002;4.356;2023-07-13T12:51:56;21.90;99.90
22035;DHT22;11181;51.002;4.356;2023-07-13T12:54:25;22.10;99.90
22035;DHT22;11181;51.002;4.356;2023-07-13T12:56:53;22.10;99.90
22035;DHT22;11181;51.002;4.356;2023-07-13T12:59:23;22.20;99.90
22035;DHT22;11181;51.002;4.356;2023-07-13T13:01:54;22.20;99.90
22035;DHT22;11181;51.002;4.356;2023-07-13T13:04:22;22.30;99.90
22035;DHT22;11181;51.002;4.356;2023-07-13T13:06:58;22.40;99.90
22035;DHT22;11181;51.002;4.356;2023-07-13T13:09:26;22.50;99.90
22035;DHT22;11181;51.002;4.356;2023-07-13T13:11:53;22.70;99.90
22035;DHT22;11181;51.002;4.356;2023-07-13T13:14:20;22.90;99.90
22035;DHT22;11181;51.002;4.356;2023-07-13T13:16:49;23.00;99.90
22035;DHT22;11181;51.002;4.356;2023-07-13T13:19:19;23.10;99.90
22035;DHT22;11181;51.002;4.356;2023-07-13T13:21:48;23.20;99.90
22035;DHT22;11181;51.002;4.356;2023-07-13T13:24:20;23.20;99.90
22035;DHT22;11181;51.002;4.356;2023-07-13T13:26:47;23.20;99.90
22035;DHT22;11181;51.002;4.356;2023-07-13T13:29:16;23.40;99.90
22035;DHT22;11181;51.002;4.356;2023-07-13T13:31:44;23.30;99.90
22035;DHT22;11181;51.002;4.356;2023-07-13T13:34:12;23.10;99.90
22035;DHT22;11181;51.002;4.356;2023-07-13T13:36:43;23.00;99.90
22035;DHT22;11181;51.002;4.356;2023-07-13T13:39:20;23.20;99.90
22035;DHT22;11181;51.002;4.356;2023-07-13T13:41:48;23.30;99.90
22035;DHT22;11181;51.002;4.356;2023-07-13T13:44:17;23.40;99.90
22035;DHT22;11181;51.002;4.356;2023-07-13T13:46:45;23.60;99.90
22035;DHT22;11181;51.002;4.356;2023-07-13T13:49:15;23.90;99.90
22035;DHT22;11181;51.002;4.356;2023-07-13T13:51:44;24.20;99.90
22035;DHT22;11181;51.002;4.356;2023-07-13T13:54:12;24.50;99.90
22035;DHT22;11181;51.002;4.356;2023-07-13T13:56:42;24.80;99.90
22035;DHT22;11181;51.002;4.356;2023-07-13T13:59:08;25.00;99.90
22035;DHT22;11181;51.002;4.356;2023-07-13T14:01:36;25.00;99.90
22035;DHT22;11181;51.002;4.356;2023-07-13T14:04:04;24.90;99.90
22035;DHT22;11181;51.002;4.356;2023-07-13T14:06:32;24.90;99.90
22035;DHT22;11181;51.002;4.356;2023-07-13T14:09:01;24.90;99.90
22035;DHT22;11181;51.002;4.356;2023-07-13T14:11:30;24.70;99.90
22035;DHT22;11181;51.002;4.356;2023-07-13T14:13:59;24.70;99.90
22035;DHT22;11181;51.002;4.356;2023-07-13T14:16:29;24.70;99.90
22035;DHT22;11181;51.002;4.356;2023-07-13T14:18:57;24.70;99.90
22035;DHT22;11181;51.002;4.356;2023-07-13T14:21:27;24.70;99.90
22035;DHT22;11181;51.002;4.356;2023-07-13T14:23:55;24.80;99.90
22035;DHT22;11181;51.002;4.356;2023-07-13T14:26:25;24.70;99.90
22035;DHT22;11181;51.002;4.356;2023-07-13T14:28:53;24.70;99.90
22035;DHT22;11181;51.002;4.356;2023-07-13T14:31:22;24.70;99.90
22035;DHT22;11181;51.002;4.356;2023-07-13T14:33:49;24.70;99.90
22035;DHT22;11181;51.002;4.356;2023-07-13T14:36:35;24.80;99.90
22035;DHT22;11181;51.002;4.356;2023-07-13T14:39:12;24.80;99.90
22035;DHT22;11181;51.002;4.356;2023-07-13T14:41:40;24.80;99.90
22035;DHT22;11181;51.002;4.356;2023-07-13T14:44:14;24.90;99.90
22035;DHT22;11181;51.002;4.356;2023-07-13T14:46:42;24.70;99.90
22035;DHT22;11181;51.002;4.356;2023-07-13T14:51:58;24.70;99.90
22035;DHT22;11181;51.002;4.356;2023-07-13T14:54:26;25.00;99.90
22035;DHT22;11181;51.002;4.356;2023-07-13T14:56:54;25.30;99.90
22035;DHT22;11181;51.002;4.356;2023-07-13T14:59:21;25.50;99.90
22035;DHT22;11181;51.002;4.356;2023-07-13T15:01:50;25.70;99.90
22035;DHT22;11181;51.002;4.356;2023-07-13T15:04:20;25.80;99.90
22035;DHT22;11181;51.002;4.356;2023-07-13T15:06:55;26.10;99.90
22035;DHT22;11181;51.002;4.356;2023-07-13T15:09:23;26.50;99.90
22035;DHT22;11181;51.002;4.356;2023-07-13T15:11:52;26.80;99.90
22035;DHT22;11181;51.002;4.356;2023-07-13T15:14:20;27.00;99.90
22035;DHT22;11181;51.002;4.356;2023-07-13T15:16:49;27.30;99.90
22035;DHT22;11181;51.002;4.356;2023-07-13T15:19:18;27.50;99.90
22035;DHT22;11181;51.002;4.356;2023-07-13T15:21:45;27.60;99.90
22035;DHT22;11181;51.002;4.356;2023-07-13T15:24:13;27.60;99.90
22035;DHT22;11181;51.002;4.356;2023-07-13T15:26:41;27.50;99.90
22035;DHT22;11181;51.002;4.356;2023-07-13T15:29:10;27.20;99.90
22035;DHT22;11181;51.002;4.356;2023-07-13T15:31:39;26.80;99.90
22035;DHT22;11181;51.002;4.356;2023-07-13T15:34:11;26.80;99.90
22035;DHT22;11181;51.002;4.356;2023-07-13T15:36:39;26.90;99.90
22035;DHT22;11181;51.002;4.356;2023-07-13T15:39:06;26.80;99.90
22035;DHT22;11181;51.002;4.356;2023-07-13T15:41:34;26.80;99.90
22035;DHT22;11181;51.002;4.356;2023-07-13T15:44:07;26.80;99.90
22035;DHT22;11181;51.002;4.356;2023-07-13T15:46:47;26.80;99.90
22035;DHT22;11181;51.002;4.356;2023-07-13T15:49:14;27.10;99.90
22035;DHT22;11181;51.002;4.356;2023-07-13T15:51:41;27.20;99.90